Time;durP1;ratioP1;P1;durP2;ratioP2;P2;SDS_P1;SDS_P2;PMS_P1;PMS_P2;Temp;Humidity;BMP_temperature;BMP_pressure;BME280_temperature;BME280_humidity;BME280_pressure;Samples;Min_cycle;Max_cycle;Signal;HPM_P1;HPM_P2
2022/06/10 00:01:38;;;;;;;8.68;3.90;;;;;14.90;96722.00;;;;8354202;28;20211;-69
2022/06/10 00:05:42;;;;;;;7.97;3.75;;;;;14.80;96724.00;;;;8354162;28;20829;-70
2022/06/10 00:09:47;;;;;;;7.53;3.83;;;;;14.80;96725.00;;;;8350819;28;20558;-73
2022/06/10 00:13:50;;;;;;;7.78;3.60;;;;;14.70;96725.00;;;;8360504;28;20288;-70
2022/06/10 00:17:54;;;;;;;7.07;3.58;;;;;14.60;96722.00;;;;8353593;28;20315;-71
2022/06/10 00:21:57;;;;;;;7.07;4.05;;;;;14.50;96722.00;;;;8352570;28;20211;-70
2022/06/10 00:26:02;;;;;;;5.93;3.95;;;;;14.50;96726.00;;;;8351204;28;20287;-71
2022/06/10 00:30:07;;;;;;;6.78;4.03;;;;;14.40;96720.00;;;;8354575;28;20210;-69
2022/06/10 00:34:10;;;;;;;5.05;3.67;;;;;14.40;96722.00;;;;8353560;28;20206;-69
2022/06/10 00:38:14;;;;;;;5.60;3.72;;;;;14.30;96722.00;;;;8353208;28;20224;-70
2022/06/10 00:42:18;;;;;;;5.28;4.10;;;;;14.30;96729.00;;;;8354955;28;20219;-70
2022/06/10 00:46:27;;;;;;;3.72;3.40;;;;;14.30;96733.00;;;;8350335;28;20196;-70
2022/06/10 00:50:32;;;;;;;6.93;3.83;;;;;14.30;96729.00;;;;8344924;28;20721;-70
2022/06/10 00:54:38;;;;;;;6.30;3.70;;;;;14.30;96729.00;;;;8353416;28;20347;-70
2022/06/10 00:58:50;;;;;;;5.72;4.18;;;;;14.30;96742.00;;;;8349412;28;20201;-70
2022/06/10 01:02:59;;;;;;;7.10;4.45;;;;;14.30;96744.00;;;;8353402;28;20244;-70
2022/06/10 01:07:04;;;;;;;7.85;3.92;;;;;14.30;96736.00;;;;8349319;28;20232;-71
2022/06/10 01:11:22;;;;;;;5.68;4.30;;;;;14.30;96745.00;;;;8343191;28;20208;-72
2022/06/10 01:15:35;;;;;;;5.35;3.60;;;;;14.30;96751.00;;;;8353067;28;20227;-71
2022/06/10 01:20:03;;;;;;;4.10;3.53;;;;;14.30;96752.00;;;;8351725;28;20276;-73
2022/06/10 01:24:39;;;;;;;5.32;3.90;;;;;14.20;96753.00;;;;8344310;28;20196;-72
2022/06/10 01:29:10;;;;;;;4.68;3.83;;;;;14.20;96753.00;;;;8348084;28;20201;-70
2022/06/10 01:33:22;;;;;;;5.88;4.13;;;;;14.20;96760.00;;;;8352584;28;20624;-69
2022/06/10 01:37:33;;;;;;;7.72;4.60;;;;;14.20;96769.00;;;;8350249;28;20343;-71
2022/06/10 01:41:47;;;;;;;6.90;4.18;;;;;14.20;96764.00;;;;8354186;28;20296;-71
2022/06/10 01:45:56;;;;;;;6.47;4.43;;;;;14.20;96773.00;;;;8350237;28;20824;-71
2022/06/10 01:50:09;;;;;;;5.72;4.85;;;;;14.10;96774.00;;;;8348100;28;21066;-71
2022/06/10 01:54:19;;;;;;;9.20;4.40;;;;;14.20;96775.00;;;;8351193;28;20203;-72
2022/06/10 01:58:27;;;;;;;6.32;4.25;;;;;14.10;96769.00;;;;8350980;28;20228;-70
2022/06/10 02:02:36;;;;;;;5.20;4.50;;;;;14.20;96766.00;;;;8346470;28;20272;-71
2022/06/10 02:06:47;;;;;;;6.93;4.53;;;;;14.10;96772.00;;;;8352392;28;20209;-70
2022/06/10 02:10:55;;;;;;;8.98;4.35;;;;;14.10;96774.00;;;;8347060;28;20199;-71
2022/06/10 02:15:02;;;;;;;4.95;4.25;;;;;14.10;96776.00;;;;8349752;28;20303;-71
2022/06/10 02:19:09;;;;;;;7.15;4.47;;;;;14.10;96776.00;;;;8352703;28;20240;-69
2022/06/10 02:23:17;;;;;;;5.28;4.70;;;;;14.10;96778.00;;;;8350774;28;20546;-71
2022/06/10 02:27:26;;;;;;;6.40;4.38;;;;;14.00;96783.00;;;;8353040;28;20657;-69
2022/06/10 02:31:33;;;;;;;6.65;4.63;;;;;14.10;96795.00;;;;8348323;28;20286;-71
2022/06/10 02:35:45;;;;;;;8.32;4.57;;;;;14.10;96798.00;;;;8347638;28;20238;-70
2022/06/10 02:39:57;;;;;;;8.80;5.07;;;;;14.00;96801.00;;;;8343206;28;20212;-71
2022/06/10 02:44:09;;;;;;;10.65;5.30;;;;;14.00;96803.00;;;;8351922;28;20233;-71
2022/06/10 02:48:20;;;;;;;11.13;5.05;;;;;14.00;96798.00;;;;8348729;28;20208;-70
2022/06/10 02:52:28;;;;;;;7.22;4.63;;;;;14.00;96810.00;;;;8357524;28;20232;-70
2022/06/10 02:56:32;;;;;;;6.95;4.65;;;;;14.10;96809.00;;;;8356275;28;20232;-71
2022/06/10 03:05:26;;;;;;;7.90;4.68;;;;;14.00;96831.00;;;;8411679;22;20222;-71
2022/06/10 03:09:41;;;;;;;9.40;5.70;;;;;14.00;96833.00;;;;8418951;28;20284;-71
2022/06/10 03:14:00;;;;;;;6.38;4.38;;;;;14.00;96836.00;;;;8426373;28;20203;-71
2022/06/10 03:18:14;;;;;;;8.02;4.78;;;;;13.90;96841.00;;;;8425639;28;20219;-69
2022/06/10 03:22:26;;;;;;;9.73;4.88;;;;;14.00;96857.00;;;;8425448;28;20282;-71
2022/06/10 03:26:40;;;;;;;8.68;4.72;;;;;14.00;96852.00;;;;8421301;28;20286;-70
2022/06/10 03:30:52;;;;;;;6.50;4.35;;;;;14.10;96857.00;;;;8421643;28;20196;-70
2022/06/10 03:35:00;;;;;;;8.85;4.78;;;;;14.20;96867.00;;;;8419713;28;20229;-71
2022/06/10 03:39:07;;;;;;;6.60;4.82;;;;;14.20;96870.00;;;;8417876;28;20230;-71
2022/06/10 03:43:14;;;;;;;6.20;4.80;;;;;14.30;96876.00;;;;8424403;28;20193;-69
2022/06/10 03:47:22;;;;;;;5.88;4.40;;;;;14.50;96868.00;;;;8428468;28;20200;-70
2022/06/10 03:51:26;;;;;;;8.15;5.45;;;;;14.50;96870.00;;;;8417766;28;20229;-71
2022/06/10 03:55:29;;;;;;;5.75;5.03;;;;;14.60;96876.00;;;;8418292;28;20199;-69
2022/06/10 03:59:32;;;;;;;9.65;4.88;;;;;14.70;96885.00;;;;8421712;28;20241;-70
2022/06/10 04:03:37;;;;;;;7.13;4.68;;;;;14.70;96885.00;;;;8407044;28;20691;-71
2022/06/10 04:07:42;;;;;;;8.82;4.43;;;;;14.80;96890.00;;;;8409476;28;20609;-69
2022/06/10 04:11:46;;;;;;;5.95;4.35;;;;;14.80;96899.00;;;;8412350;28;20245;-69
2022/06/10 04:15:50;;;;;;;7.45;5.20;;;;;15.00;96900.00;;;;8419476;28;20227;-71
2022/06/10 04:19:54;;;;;;;5.18;4.60;;;;;15.00;96902.00;;;;8426598;28;20199;-69
2022/06/10 04:23:58;;;;;;;13.00;5.75;;;;;15.10;96903.00;;;;8420163;28;20196;-70
2022/06/10 04:28:01;;;;;;;6.43;5.07;;;;;15.00;96910.00;;;;8414586;28;20202;-70
2022/06/10 04:32:06;;;;;;;7.38;5.03;;;;;15.10;96907.00;;;;8409960;28;20221;-72
2022/06/10 04:36:16;;;;;;;9.88;5.43;;;;;15.20;96913.00;;;;8426440;28;20241;-71
2022/06/10 04:40:24;;;;;;;9.15;5.40;;;;;15.30;96923.00;;;;8417460;28;20286;-71
2022/06/10 04:44:27;;;;;;;7.05;4.97;;;;;15.50;96929.00;;;;8405552;28;20275;-70
2022/06/10 04:48:31;;;;;;;10.07;5.65;;;;;15.60;96938.00;;;;8408288;28;20282;-70
2022/06/10 04:52:37;;;;;;;10.50;5.30;;;;;15.80;96941.00;;;;8400967;28;20310;-70
2022/06/10 04:56:40;;;;;;;9.05;5.40;;;;;16.00;96944.00;;;;8405012;28;20318;-70
2022/06/10 05:00:47;;;;;;;9.30;5.55;;;;;16.10;96945.00;;;;8411768;28;20203;-71
2022/06/10 05:04:51;;;;;;;7.75;5.55;;;;;16.20;96945.00;;;;8407633;28;20231;-71
2022/06/10 05:08:56;;;;;;;9.70;5.75;;;;;16.40;96943.00;;;;8399666;28;20299;-69
2022/06/10 05:12:59;;;;;;;7.90;5.10;;;;;16.50;96944.00;;;;8414168;28;20235;-71
2022/06/10 05:17:03;;;;;;;10.52;4.97;;;;;16.70;96948.00;;;;8402270;28;20241;-70
2022/06/10 05:21:06;;;;;;;6.38;5.32;;;;;16.90;96953.00;;;;8405326;28;20202;-72
2022/06/10 05:25:12;;;;;;;10.35;5.40;;;;;17.20;96949.00;;;;8400677;28;20191;-69
2022/06/10 05:29:15;;;;;;;7.40;5.10;;;;;17.50;96960.00;;;;8402395;28;21003;-70
2022/06/10 05:33:18;;;;;;;6.88;4.97;;;;;17.80;96950.00;;;;8408768;28;20637;-73
2022/06/10 05:37:24;;;;;;;11.82;5.00;;;;;18.30;96957.00;;;;8405897;28;20695;-71
2022/06/10 05:45:50;;;;;;;8.75;4.10;;;;;19.70;96960.00;;;;8403473;28;20197;-68
2022/06/10 05:49:55;;;;;;;6.53;4.35;;;;;20.20;96973.00;;;;8412605;28;20210;-72
2022/06/10 05:53:58;;;;;;;4.78;4.10;;;;;20.90;96975.00;;;;8406440;28;20206;-70
2022/06/10 05:58:03;;;;;;;10.52;4.47;;;;;21.30;96981.00;;;;8406959;28;20309;-71
2022/06/10 06:02:10;;;;;;;5.50;4.40;;;;;21.60;96976.00;;;;8407733;28;20277;-71
2022/06/10 06:06:14;;;;;;;5.50;4.43;;;;;21.90;96980.00;;;;8410709;28;20196;-72
2022/06/10 06:10:19;;;;;;;6.50;4.30;;;;;22.30;96987.00;;;;8413058;28;20196;-72
2022/06/10 06:14:25;;;;;;;4.38;3.58;;;;;22.70;96980.00;;;;8413498;28;20195;-72
2022/06/10 06:18:29;;;;;;;5.10;3.60;;;;;23.10;96986.00;;;;8409800;28;20318;-71
2022/06/10 06:22:32;;;;;;;6.28;4.15;;;;;23.20;96985.00;;;;8412787;28;20203;-72
2022/06/10 06:26:35;;;;;;;4.35;3.38;;;;;23.50;96991.00;;;;8414727;28;20222;-72
2022/06/10 06:30:40;;;;;;;5.70;3.20;;;;;24.10;96987.00;;;;8415628;28;20199;-73
2022/06/10 06:34:43;;;;;;;4.05;3.15;;;;;24.50;96996.00;;;;8414444;28;20218;-72
2022/06/10 06:38:47;;;;;;;5.93;3.45;;;;;24.60;96997.00;;;;8410838;28;20227;-71
2022/06/10 06:42:50;;;;;;;4.90;3.17;;;;;24.70;96989.00;;;;8410451;28;20285;-71
2022/06/10 06:46:55;;;;;;;3.20;2.97;;;;;24.70;96991.00;;;;8413081;28;20662;-71
2022/06/10 06:50:58;;;;;;;6.25;3.20;;;;;25.00;96998.00;;;;8418990;28;20187;-71
2022/06/10 06:55:03;;;;;;;3.47;2.80;;;;;25.20;97000.00;;;;8414494;28;20200;-73
2022/06/10 06:59:07;;;;;;;6.57;2.60;;;;;25.10;97005.00;;;;8412818;28;20215;-72
2022/06/10 07:03:12;;;;;;;3.67;2.40;;;;;25.20;97011.00;;;;8415048;28;20227;-72
2022/06/10 07:07:16;;;;;;;7.32;2.80;;;;;25.20;97013.00;;;;8409491;28;20202;-71
2022/06/10 07:11:19;;;;;;;2.92;2.70;;;;;25.40;97016.00;;;;8415915;28;20196;-69
2022/06/10 07:15:24;;;;;;;3.33;2.80;;;;;25.60;97020.00;;;;8412171;28;20221;-71
2022/06/10 07:19:28;;;;;;;3.97;2.78;;;;;25.70;97026.00;;;;8415171;28;20226;-70
2022/06/10 07:23:31;;;;;;;3.13;2.70;;;;;25.70;97016.00;;;;8418165;28;20664;-72
2022/06/10 07:27:36;;;;;;;3.33;2.60;;;;;25.90;97018.00;;;;8414882;28;20211;-71
2022/06/10 07:31:41;;;;;;;4.07;2.50;;;;;26.00;97018.00;;;;8417786;28;20282;-72
2022/06/10 07:35:47;;;;;;;3.25;2.60;;;;;25.80;97006.00;;;;8415945;28;20207;-71
2022/06/10 07:39:50;;;;;;;4.05;2.70;;;;;26.30;97015.00;;;;8422097;28;20303;-72
2022/06/10 07:43:53;;;;;;;6.25;2.65;;;;;26.20;97014.00;;;;8422563;28;20213;-72
2022/06/10 07:47:57;;;;;;;3.05;2.47;;;;;26.30;97012.00;;;;8411831;28;20617;-73
2022/06/10 07:52:03;;;;;;;2.70;2.50;;;;;26.80;97004.00;;;;8419365;28;20759;-71
2022/06/10 07:56:07;;;;;;;2.90;2.13;;;;;27.30;97011.00;;;;8421627;28;20779;-72
2022/06/10 08:00:12;;;;;;;2.17;1.98;;;;;27.10;97011.00;;;;8421820;28;20307;-73
2022/06/10 08:04:15;;;;;;;2.03;1.90;;;;;26.90;97015.00;;;;8412219;28;20223;-73
2022/06/10 08:08:22;;;;;;;4.38;2.38;;;;;26.80;97018.00;;;;8434908;28;20518;-72
2022/06/10 08:12:25;;;;;;;6.38;2.67;;;;;26.90;97016.00;;;;8426024;28;20282;-72
2022/06/10 08:16:28;;;;;;;2.83;2.60;;;;;27.60;97035.00;;;;8416566;28;20318;-72
2022/06/10 08:24:56;;;;;;;3.30;2.05;;;;;27.90;97022.00;;;;8420271;28;20198;-72
2022/06/10 08:29:00;;;;;;;1.92;1.83;;;;;28.20;97021.00;;;;8425273;28;20199;-72
2022/06/10 08:33:04;;;;;;;2.85;2.63;;;;;26.90;97019.00;;;;8413520;28;20849;-71
2022/06/10 08:37:08;;;;;;;3.70;2.25;;;;;26.40;97025.00;;;;8431014;28;20227;-72
2022/06/10 08:41:20;;;;;;;3.70;2.30;;;;;27.60;97025.00;;;;8439817;28;20279;-70
2022/06/10 08:45:33;;;;;;;1.92;1.80;;;;;28.70;97025.00;;;;8445269;28;20722;-72
2022/06/10 08:50:02;;;;;;;3.80;2.20;;;;;27.70;97025.00;;;;8431294;28;20663;-75
2022/06/10 08:54:14;;;;;;;2.63;2.20;;;;;26.60;97036.00;;;;8417420;28;20286;-72
2022/06/10 08:58:23;;;;;;;3.28;2.10;;;;;25.70;97035.00;;;;8443478;28;20219;-72
2022/06/10 09:02:34;;;;;;;2.10;2.00;;;;;25.10;97032.00;;;;8408058;28;20235;-72
2022/06/10 09:06:47;;;;;;;3.22;1.90;;;;;26.10;97034.00;;;;8430496;28;20203;-72
2022/06/10 09:10:55;;;;;;;3.90;2.00;;;;;27.20;97033.00;;;;8436570;28;20196;-72
2022/06/10 09:15:04;;;;;;;5.10;2.08;;;;;28.90;97038.00;;;;8429528;28;20279;-72
2022/06/10 09:19:14;;;;;;;2.22;1.77;;;;;30.40;97048.00;;;;8439118;28;20229;-72
2022/06/10 09:23:20;;;;;;;3.63;1.83;;;;;31.10;97048.00;;;;8433264;28;20307;-70
2022/06/10 09:27:28;;;;;;;3.88;1.70;;;;;29.90;97056.00;;;;8419581;28;20782;-71
2022/06/10 09:31:40;;;;;;;4.63;1.80;;;;;29.10;97054.00;;;;8412414;28;20853;-72
2022/06/10 09:35:53;;;;;;;2.35;1.50;;;;;30.20;97045.00;;;;8409910;28;20292;-73
2022/06/10 09:44:33;;;;;;;2.88;1.83;;;;;31.90;97047.00;;;;8401685;28;20713;-71
2022/06/10 09:48:54;;;;;;;3.58;1.77;;;;;32.30;97051.00;;;;8418008;28;20282;-71
2022/06/10 09:53:28;;;;;;;1.50;1.40;;;;;32.80;97054.00;;;;8420603;28;20279;-71
2022/06/10 09:57:48;;;;;;;1.83;1.70;;;;;30.80;97059.00;;;;8421403;28;20666;-70
2022/06/10 10:02:01;;;;;;;2.50;1.40;;;;;29.70;97059.00;;;;8427758;28;20191;-70
2022/06/10 10:06:30;;;;;;;3.40;1.95;;;;;29.80;97050.00;;;;8425076;28;20707;-71
2022/06/10 10:10:41;;;;;;;2.55;1.60;;;;;31.80;97057.00;;;;8423716;28;20542;-72
2022/06/10 10:14:50;;;;;;;1.85;1.50;;;;;33.20;97056.00;;;;8414395;28;20290;-71
2022/06/10 10:19:13;;;;;;;2.47;1.42;;;;;34.00;97044.00;;;;8412757;28;20243;-72
2022/06/10 10:23:22;;;;;;;2.35;1.50;;;;;34.80;97051.00;;;;8425434;28;20187;-72
2022/06/10 10:27:31;;;;;;;1.70;1.60;;;;;35.50;97049.00;;;;8418640;28;20655;-72
2022/06/10 10:31:39;;;;;;;2.20;1.58;;;;;35.10;97050.00;;;;8425161;28;20709;-73
2022/06/10 10:35:44;;;;;;;2.92;1.67;;;;;34.00;97054.00;;;;8426448;28;20699;-73
2022/06/10 10:39:55;;;;;;;1.40;1.33;;;;;33.30;97049.00;;;;8420006;28;20215;-72
2022/06/10 10:44:01;;;;;;;2.90;1.75;;;;;32.30;97055.00;;;;8403883;28;20646;-72
2022/06/10 10:48:21;;;;;;;1.40;1.40;;;;;30.90;97051.00;;;;8412841;28;20252;-72
2022/06/10 10:52:27;;;;;;;2.85;1.83;;;;;29.80;97054.00;;;;8418840;28;20196;-72
2022/06/10 10:56:37;;;;;;;2.20;1.48;;;;;29.20;97052.00;;;;8420560;28;20199;-73
2022/06/10 11:00:43;;;;;;;2.65;1.60;;;;;28.90;97054.00;;;;8420731;28;20599;-73
2022/06/10 11:04:46;;;;;;;1.73;1.60;;;;;28.90;97050.00;;;;8422065;28;20591;-73
2022/06/10 11:08:56;;;;;;;2.05;1.60;;;;;28.90;97057.00;;;;8418600;28;20935;-72
2022/06/10 11:13:07;;;;;;;2.67;1.92;;;;;28.90;97059.00;;;;8416598;28;20199;-72
2022/06/10 11:17:19;;;;;;;3.38;1.70;;;;;28.90;97063.00;;;;8419300;28;20199;-73
2022/06/10 11:21:25;;;;;;;2.83;1.58;;;;;30.60;97058.00;;;;8427265;28;20262;-73
2022/06/10 11:25:32;;;;;;;1.98;1.80;;;;;33.10;97053.00;;;;8413234;28;20207;-73
2022/06/10 11:29:37;;;;;;;3.20;1.80;;;;;34.50;97053.00;;;;8422022;28;20192;-73
2022/06/10 11:33:45;;;;;;;1.60;1.50;;;;;33.90;97053.00;;;;8410719;28;20236;-74
2022/06/10 11:37:51;;;;;;;3.78;1.83;;;;;33.50;97048.00;;;;8416386;28;20287;-74
2022/06/10 11:42:07;;;;;;;1.60;1.50;;;;;33.40;97048.00;;;;8416956;28;20224;-73
2022/06/10 11:46:18;;;;;;;2.40;1.70;;;;;32.90;97047.00;;;;8424228;28;20226;-73
2022/06/10 11:50:28;;;;;;;3.05;1.90;;;;;32.00;97047.00;;;;8423080;28;20207;-74
2022/06/10 11:54:38;;;;;;;3.03;2.17;;;;;31.90;97034.00;;;;8419283;28;20286;-72
2022/06/10 12:03:17;;;;;;;1.70;1.60;;;;;32.90;97036.00;;;;8416733;28;20306;-73
2022/06/10 12:07:24;;;;;;;1.80;1.70;;;;;32.50;97033.00;;;;8423480;28;20192;-72
2022/06/10 12:11:34;;;;;;;1.70;1.60;;;;;31.00;97031.00;;;;8417016;28;20278;-73
2022/06/10 12:15:42;;;;;;;2.97;1.73;;;;;30.50;97026.00;;;;8424977;28;20309;-73
2022/06/10 12:19:50;;;;;;;4.40;1.80;;;;;30.10;97024.00;;;;8426423;28;20310;-72
2022/06/10 12:23:53;;;;;;;3.50;1.98;;;;;29.80;97029.00;;;;8416349;28;20219;-74
2022/06/10 12:28:04;;;;;;;4.95;2.40;;;;;29.80;97034.00;;;;8418316;28;20299;-72
2022/06/10 12:32:20;;;;;;;2.30;2.10;;;;;29.60;97027.00;;;;8418213;28;20192;-74
2022/06/10 12:36:30;;;;;;;1.73;1.63;;;;;29.50;97028.00;;;;8422533;28;20195;-74
2022/06/10 12:40:39;;;;;;;2.20;2.00;;;;;29.30;97019.00;;;;8415702;28;20235;-72
2022/06/10 12:44:53;;;;;;;2.97;1.83;;;;;29.40;97024.00;;;;8426452;27;1360150;-72
2022/06/10 12:48:57;;;;;;;2.78;2.00;;;;;29.50;97015.00;;;;8449854;28;20226;-73
2022/06/10 12:53:18;;;;;;;4.35;2.25;;;;;29.90;97012.00;;;;8445691;28;20195;-72
2022/06/10 12:57:29;;;;;;;2.35;1.95;;;;;30.50;97013.00;;;;8447700;28;20284;-70
2022/06/10 13:01:44;;;;;;;5.35;1.70;;;;;30.90;97005.00;;;;8443813;28;20240;-71
2022/06/10 13:05:48;;;;;;;2.28;1.75;;;;;31.20;97017.00;;;;8439504;28;20222;-71
2022/06/10 13:09:52;;;;;;;1.95;1.80;;;;;31.50;97020.00;;;;8449019;28;20286;-70
2022/06/10 13:14:21;;;;;;;3.45;1.90;;;;;31.70;97019.00;;;;8443474;28;20734;-71
2022/06/10 13:18:35;;;;;;;1.70;1.58;;;;;32.40;97008.00;;;;8430882;28;20278;-71
2022/06/10 13:22:41;;;;;;;2.05;1.85;;;;;33.00;97012.00;;;;8434236;28;20227;-72
2022/06/10 13:26:50;;;;;;;1.80;1.67;;;;;32.40;97010.00;;;;8446535;28;20195;-71
2022/06/10 13:31:05;;;;;;;1.88;1.70;;;;;32.60;97002.00;;;;8449079;28;20794;-70
2022/06/10 13:35:16;;;;;;;1.88;1.77;;;;;32.30;97003.00;;;;8441147;28;20570;-70
2022/06/10 13:39:26;;;;;;;1.58;1.58;;;;;32.80;96999.00;;;;8449815;28;20209;-69
2022/06/10 13:43:33;;;;;;;1.85;1.67;;;;;33.30;96997.00;;;;8438693;28;20310;-70
2022/06/10 13:47:36;;;;;;;2.20;1.70;;;;;33.80;96999.00;;;;8439892;28;20237;-72
2022/06/10 13:51:48;;;;;;;2.58;1.60;;;;;34.60;97000.00;;;;8449110;28;20294;-70
2022/06/10 13:55:55;;;;;;;1.60;1.50;;;;;35.10;96988.00;;;;8422555;28;20278;-71
2022/06/10 14:00:00;;;;;;;4.07;1.42;;;;;35.40;96983.00;;;;8425459;28;20608;-72
2022/06/10 14:04:08;;;;;;;2.05;1.83;;;;;35.00;96986.00;;;;8426157;28;20239;-71
2022/06/10 14:08:17;;;;;;;5.53;1.90;;;;;35.00;96986.00;;;;8417100;28;20208;-71
2022/06/10 14:12:23;;;;;;;1.60;1.50;;;;;35.30;96980.00;;;;8418130;28;20200;-71
2022/06/10 14:16:27;;;;;;;4.95;1.70;;;;;35.30;96979.00;;;;8409631;28;20715;-70
2022/06/10 14:20:33;;;;;;;1.70;1.60;;;;;35.30;96971.00;;;;8424839;28;20203;-71
2022/06/10 14:24:38;;;;;;;1.52;1.42;;;;;35.00;96971.00;;;;8422433;28;20231;-73
2022/06/10 14:28:44;;;;;;;2.30;1.60;;;;;35.10;96979.00;;;;8419299;28;20287;-71
2022/06/10 14:32:53;;;;;;;1.52;1.30;;;;;35.30;96976.00;;;;8425824;28;20199;-72
2022/06/10 14:37:03;;;;;;;2.03;1.60;;;;;34.80;96981.00;;;;8413488;28;20195;-72
2022/06/10 14:41:21;;;;;;;1.83;1.73;;;;;34.70;96977.00;;;;8412417;28;20210;-70
2022/06/10 14:45:32;;;;;;;1.58;1.45;;;;;34.90;96974.00;;;;8417415;28;20771;-70
2022/06/10 14:49:46;;;;;;;1.67;1.45;;;;;34.90;96977.00;;;;8408250;28;20299;-71
2022/06/10 14:53:53;;;;;;;2.95;1.30;;;;;35.00;96966.00;;;;8421412;28;20196;-70
2022/06/10 14:58:00;;;;;;;1.60;1.50;;;;;35.30;96966.00;;;;8411010;28;20711;-72
2022/06/10 15:02:03;;;;;;;1.77;1.40;;;;;35.60;96960.00;;;;8419272;28;20255;-71
2022/06/10 15:06:23;;;;;;;2.83;1.50;;;;;35.60;96960.00;;;;8418094;28;20282;-72
2022/06/10 15:10:27;;;;;;;1.52;1.40;;;;;35.60;96956.00;;;;8416393;28;20198;-70
2022/06/10 15:14:31;;;;;;;2.17;1.63;;;;;35.20;96960.00;;;;8424219;28;20204;-70
2022/06/10 15:18:35;;;;;;;1.48;1.35;;;;;35.00;96958.00;;;;8406506;28;20283;-72
2022/06/10 15:22:41;;;;;;;7.53;1.80;;;;;35.40;96956.00;;;;8418242;28;20254;-70
2022/06/10 15:26:49;;;;;;;1.80;1.50;;;;;35.70;96952.00;;;;8417749;28;20231;-71
2022/06/10 15:30:56;;;;;;;1.58;1.30;;;;;35.50;96950.00;;;;8420148;28;20199;-71
2022/06/10 15:43:44;;;;;;;1.35;1.25;;;;;34.80;96945.00;;;;8418307;28;20305;-71
2022/06/10 15:47:49;;;;;;;1.50;1.40;;;;;34.60;96951.00;;;;8407651;28;20230;-73
2022/06/10 15:52:00;;;;;;;1.67;1.50;;;;;34.60;96949.00;;;;8407100;28;20294;-69
2022/06/10 16:00:28;;;;;;;3.13;1.77;;;;;34.30;96937.00;;;;8418636;28;20231;-72
2022/06/10 16:04:32;;;;;;;1.52;1.40;;;;;33.90;96942.00;;;;8416272;28;20330;-69
2022/06/10 16:08:36;;;;;;;1.52;1.30;;;;;34.00;96939.00;;;;8415780;28;20252;-70
2022/06/10 16:17:02;;;;;;;1.70;1.60;;;;;34.50;96931.00;;;;8414780;28;20206;-72
2022/06/10 16:21:10;;;;;;;1.67;1.42;;;;;34.30;96930.00;;;;8417152;28;20599;-69
2022/06/10 16:25:16;;;;;;;2.15;1.73;;;;;34.20;96941.00;;;;8417111;28;20241;-70
2022/06/10 16:29:26;;;;;;;2.58;1.63;;;;;34.00;96936.00;;;;8422244;28;20726;-73
2022/06/10 16:33:29;;;;;;;1.60;1.50;;;;;33.90;96942.00;;;;8415560;28;20992;-73
2022/06/10 16:37:33;;;;;;;1.23;1.20;;;;;34.30;96938.00;;;;8419071;28;20209;-70
2022/06/10 16:41:38;;;;;;;1.55;1.52;;;;;34.30;96934.00;;;;8411211;28;20200;-71
2022/06/10 16:45:42;;;;;;;2.40;1.70;;;;;34.30;96942.00;;;;8405144;28;20309;-72
2022/06/10 16:49:48;;;;;;;1.65;1.55;;;;;33.90;96930.00;;;;8419660;28;20222;-71
2022/06/10 16:53:53;;;;;;;1.30;1.30;;;;;33.20;96936.00;;;;8417142;28;20278;-77
2022/06/10 16:57:57;;;;;;;3.97;2.15;;;;;32.00;96929.00;;;;8417707;28;20225;-71
2022/06/10 17:02:12;;;;;;;1.80;1.70;;;;;31.20;96931.00;;;;8417599;28;20191;-72
2022/06/10 17:06:17;;;;;;;1.65;1.55;;;;;31.70;96929.00;;;;8416326;28;20297;-70
2022/06/10 17:10:22;;;;;;;2.08;1.88;;;;;32.20;96926.00;;;;8418860;28;20641;-74
2022/06/10 17:14:27;;;;;;;1.67;1.58;;;;;32.70;96924.00;;;;8417982;28;20299;-69
2022/06/10 17:18:31;;;;;;;1.80;1.70;;;;;33.20;96929.00;;;;8419304;28;20196;-73
2022/06/10 17:22:35;;;;;;;1.60;1.48;;;;;33.70;96928.00;;;;8415506;28;20208;-71
2022/06/10 17:26:43;;;;;;;1.65;1.55;;;;;34.00;96927.00;;;;8413433;28;20288;-72
2022/06/10 17:30:50;;;;;;;1.60;1.50;;;;;34.40;96930.00;;;;8418960;28;20203;-80
2022/06/10 17:34:57;;;;;;;1.70;1.60;;;;;34.60;96928.00;;;;8347820;28;20228;-69
2022/06/10 17:39:01;;;;;;;1.40;1.40;;;;;34.90;96932.00;;;;8352547;28;20255;-70
2022/06/10 17:43:06;;;;;;;1.55;1.45;;;;;35.00;96927.00;;;;8352066;28;20330;-68
2022/06/10 17:47:13;;;;;;;1.60;1.50;;;;;35.10;96938.00;;;;8349253;28;20228;-70
2022/06/10 17:51:17;;;;;;;1.33;1.33;;;;;35.10;96932.00;;;;8335925;28;20656;-69
2022/06/10 17:55:20;;;;;;;1.10;1.10;;;;;34.10;96936.00;;;;8354264;28;20650;-72
2022/06/10 17:59:31;;;;;;;2.55;1.30;;;;;32.70;96939.00;;;;8351754;28;20200;-70
2022/06/10 18:03:34;;;;;;;2.08;1.55;;;;;31.50;96941.00;;;;8353507;28;20320;-73
2022/06/10 18:07:37;;;;;;;2.60;1.60;;;;;30.40;96946.00;;;;8351681;28;20550;-74
2022/06/10 18:11:48;;;;;;;3.28;1.83;;;;;29.40;96940.00;;;;8354359;28;20243;-67
2022/06/10 18:15:56;;;;;;;1.90;1.67;;;;;28.50;96931.00;;;;8350948;28;20197;-67
2022/06/10 18:19:59;;;;;;;1.67;1.58;;;;;27.80;96939.00;;;;8340504;28;20282;-67
2022/06/10 18:24:03;;;;;;;2.67;1.83;;;;;27.20;96937.00;;;;8349072;28;20820;-70
2022/06/10 18:28:08;;;;;;;4.28;1.95;;;;;26.40;96927.00;;;;8354663;28;20588;-71
2022/06/10 18:32:19;;;;;;;2.17;2.00;;;;;25.70;96935.00;;;;8350593;28;20205;-69
2022/06/10 18:36:22;;;;;;;8.02;2.30;;;;;24.80;96936.00;;;;8349793;28;20204;-70
2022/06/10 18:40:28;;;;;;;2.40;2.20;;;;;24.00;96935.00;;;;8348727;28;20197;-70
2022/06/10 18:44:31;;;;;;;3.97;2.20;;;;;23.30;96935.00;;;;8351144;28;20336;-67
2022/06/10 18:48:38;;;;;;;2.20;2.00;;;;;22.70;96939.00;;;;8349777;28;20332;-70
2022/06/10 18:52:41;;;;;;;2.33;2.13;;;;;22.20;96941.00;;;;8354775;28;20251;-68
2022/06/10 18:56:46;;;;;;;2.20;2.00;;;;;21.70;96952.00;;;;8344982;28;20910;-71
2022/06/10 19:00:52;;;;;;;2.42;2.22;;;;;21.30;96951.00;;;;8345191;28;20200;-72
2022/06/10 19:04:58;;;;;;;4.32;2.00;;;;;20.90;96958.00;;;;8347444;28;20240;-70
2022/06/10 19:09:01;;;;;;;4.18;2.25;;;;;20.40;96958.00;;;;8348589;28;20299;-72
2022/06/10 19:13:05;;;;;;;2.78;2.40;;;;;20.10;96958.00;;;;8349156;28;20209;-70
2022/06/10 19:17:29;;;;;;;2.67;2.22;;;;;19.70;96961.00;;;;8349939;28;20298;-69
2022/06/10 19:21:40;;;;;;;2.72;2.53;;;;;19.50;96967.00;;;;8344505;28;20307;-68
2022/06/10 19:25:47;;;;;;;6.05;2.70;;;;;19.20;96971.00;;;;8341066;28;20279;-67
2022/06/10 19:29:51;;;;;;;3.05;2.60;;;;;18.90;96964.00;;;;8349469;28;20620;-69
2022/06/10 19:33:58;;;;;;;5.32;2.80;;;;;18.60;96974.00;;;;8349926;28;20200;-71
2022/06/10 19:38:07;;;;;;;3.58;2.72;;;;;18.40;96974.00;;;;8345698;28;20213;-69
2022/06/10 19:42:16;;;;;;;5.97;2.90;;;;;18.10;96978.00;;;;8343614;28;20233;-71
2022/06/10 19:46:23;;;;;;;4.13;2.97;;;;;17.90;96988.00;;;;8344174;28;20302;-70
2022/06/10 19:50:28;;;;;;;4.55;2.90;;;;;17.70;96991.00;;;;8346338;28;20288;-70
2022/06/10 19:54:33;;;;;;;5.65;3.10;;;;;17.60;96991.00;;;;8347716;28;20310;-69
2022/06/10 19:58:39;;;;;;;3.72;3.40;;;;;17.40;96996.00;;;;8344758;28;20197;-70
2022/06/10 20:02:46;;;;;;;3.47;3.17;;;;;17.20;96999.00;;;;8341025;28;20224;-69
2022/06/10 20:06:55;;;;;;;10.43;3.15;;;;;17.10;97003.00;;;;8348191;28;20224;-69
2022/06/10 20:11:02;;;;;;;8.25;3.40;;;;;16.90;97008.00;;;;8345838;28;20203;-70
2022/06/10 20:15:06;;;;;;;5.97;3.30;;;;;16.70;97007.00;;;;8346064;28;20638;-69
2022/06/10 20:19:12;;;;;;;10.68;3.40;;;;;16.60;97002.00;;;;8341001;28;20193;-70
2022/06/10 20:23:16;;;;;;;9.60;3.45;;;;;16.40;97000.00;;;;8344132;28;20277;-69
2022/06/10 20:27:21;;;;;;;3.25;3.05;;;;;16.20;96999.00;;;;8350321;28;20224;-69
2022/06/10 20:31:30;;;;;;;3.42;3.20;;;;;16.00;96996.00;;;;8343348;28;20290;-70
2022/06/10 20:35:36;;;;;;;8.63;4.68;;;;;15.90;97005.00;;;;8343371;28;20267;-68
2022/06/10 20:39:40;;;;;;;3.80;3.50;;;;;15.80;97005.00;;;;8345608;28;20195;-70
2022/06/10 20:43:45;;;;;;;3.97;3.47;;;;;15.70;97002.00;;;;8348563;28;20738;-71
2022/06/10 20:47:50;;;;;;;4.00;3.60;;;;;15.50;97003.00;;;;8345533;28;20200;-69
2022/06/10 20:51:56;;;;;;;6.88;3.47;;;;;15.40;96997.00;;;;8345369;28;20634;-69
2022/06/10 20:55:59;;;;;;;7.72;3.65;;;;;15.30;96997.00;;;;8340380;28;20587;-67
2022/06/10 21:00:05;;;;;;;4.85;3.47;;;;;15.20;96999.00;;;;8345631;28;20278;-67
2022/06/10 21:08:37;;;;;;;6.78;3.67;;;;;15.00;96984.00;;;;8354570;28;20295;-68
2022/06/10 21:12:42;;;;;;;6.68;3.28;;;;;15.00;96986.00;;;;8350201;28;20203;-70
2022/06/10 21:16:48;;;;;;;6.47;4.05;;;;;14.80;96980.00;;;;8352864;28;20232;-71
2022/06/10 21:20:53;;;;;;;4.53;4.13;;;;;14.70;96986.00;;;;8357096;28;20320;-71